Time;durP1;ratioP1;P1;durP2;ratioP2;P2;SDS_P1;SDS_P2;PMS_P1;PMS_P2;Temp;Humidity;BMP_temperature;BMP_pressure;BME280_temperature;BME280_humidity;BME280_pressure;Samples;Min_cycle;Max_cycle;Signal;HPM_P1;HPM_P2
2022/02/18 00:01:02;;;;;;;1999.90;999.90;;;;;;;1.30;48.02;100345.09;5052288;22;98731;-71
2022/02/18 00:03:29;;;;;;;1999.90;999.90;;;;;;;1.29;48.12;100342.41;5014973;27;98166;-70
2022/02/18 00:05:58;;;;;;;1999.90;999.90;;;;;;;1.31;47.76;100333.78;5034522;27;97718;-71
2022/02/18 00:08:26;;;;;;;1999.90;999.90;;;;;;;1.30;48.23;100345.09;5040461;27;98813;-71
2022/02/18 00:10:54;;;;;;;1999.90;999.90;;;;;;;1.26;48.06;100335.28;5037676;27;98913;-71
2022/02/18 00:13:21;;;;;;;1999.90;999.90;;;;;;;1.32;47.71;100339.94;5018407;28;97062;-70
2022/02/18 00:15:50;;;;;;;1999.90;999.90;;;;;;;1.33;47.74;100347.84;5018775;28;97283;-70
2022/02/18 00:18:18;;;;;;;1999.90;999.90;;;;;;;1.33;47.95;100362.69;5017588;27;99291;-71
2022/02/18 00:20:46;;;;;;;1999.90;999.90;;;;;;;1.35;48.19;100359.31;5016612;27;97963;-71
2022/02/18 00:23:13;;;;;;;1999.90;999.90;;;;;;;1.35;48.18;100356.69;5015715;28;96920;-71
2022/02/18 00:25:41;;;;;;;1999.90;999.90;;;;;;;1.38;47.67;100363.84;5016447;28;98721;-71
2022/02/18 00:28:09;;;;;;;1999.90;999.90;;;;;;;1.36;48.03;100353.25;5017164;28;99151;-71
2022/02/18 00:30:36;;;;;;;1999.90;999.90;;;;;;;1.32;48.34;100369.66;5016730;27;96988;-71
2022/02/18 00:33:08;;;;;;;1999.90;999.90;;;;;;;1.27;48.06;100367.63;4998944;28;97358;-70
2022/02/18 00:35:36;;;;;;;1999.90;999.90;;;;;;;1.24;48.68;100363.13;5016167;28;98035;-70
2022/02/18 00:38:05;;;;;;;1999.90;999.90;;;;;;;1.24;48.75;100355.25;5031655;27;98281;-71
2022/02/18 00:40:32;;;;;;;1999.90;999.90;;;;;;;1.22;48.20;100370.00;5015445;27;99209;-71
2022/02/18 00:43:01;;;;;;;1999.90;999.90;;;;;;;1.23;48.55;100366.56;5016357;28;97046;-71
2022/02/18 00:45:30;;;;;;;1999.90;999.90;;;;;;;1.22;48.83;100370.00;4996564;28;98383;-71
2022/02/18 00:47:58;;;;;;;1999.90;999.90;;;;;;;1.23;48.21;100371.81;5017385;28;97679;-71
2022/02/18 00:50:27;;;;;;;1999.90;999.90;;;;;;;1.23;48.66;100385.78;5017023;28;98826;-71
2022/02/18 00:52:55;;;;;;;1999.90;999.90;;;;;;;1.12;48.60;100393.94;4996625;28;97580;-70
2022/02/18 00:55:23;;;;;;;1999.90;999.90;;;;;;;1.10;48.43;100382.47;5015567;27;100626;-71
2022/02/18 00:57:52;;;;;;;1999.90;999.90;;;;;;;1.08;49.00;100394.59;5016792;28;98043;-71
2022/02/18 01:00:21;;;;;;;1999.90;999.90;;;;;;;1.07;48.59;100391.06;4997611;28;100809;-71
2022/02/18 01:02:49;;;;;;;1999.90;999.90;;;;;;;1.05;48.42;100387.47;5014216;27;97314;-71
2022/02/18 01:05:16;;;;;;;1999.90;999.90;;;;;;;1.12;48.46;100393.94;5012544;28;97253;-72
2022/02/18 01:07:45;;;;;;;1999.90;999.90;;;;;;;1.12;48.64;100404.41;4998060;28;97760;-69
2022/02/18 01:10:13;;;;;;;1999.90;999.90;;;;;;;1.13;48.81;100408.81;5016604;28;99740;-70
2022/02/18 01:12:42;;;;;;;1999.90;999.90;;;;;;;1.15;48.95;100387.13;4998956;28;97202;-70
2022/02/18 01:15:11;;;;;;;1999.90;999.90;;;;;;;1.17;48.68;100395.97;5013731;27;97391;-70
2022/02/18 01:17:56;;;;;;;1999.90;999.90;;;;;;;1.20;48.44;100422.34;4999885;28;99376;-70
2022/02/18 01:20:24;;;;;;;1999.90;999.90;;;;;;;1.20;48.84;100424.03;5033277;27;98165;-69
2022/02/18 01:22:53;;;;;;;1999.90;999.90;;;;;;;1.17;49.03;100416.03;5017107;28;98429;-71
2022/02/18 01:25:21;;;;;;;1999.90;999.90;;;;;;;1.18;48.68;100423.06;5015055;27;98402;-71
2022/02/18 01:27:54;;;;;;;1999.90;999.90;;;;;;;1.21;49.07;100423.25;5031501;27;97899;-71
2022/02/18 01:30:21;;;;;;;1999.90;999.90;;;;;;;1.21;48.73;100418.00;5016642;27;97781;-71
2022/02/18 01:32:49;;;;;;;1999.90;999.90;;;;;;;1.25;49.04;100422.59;4996637;28;96250;-70
2022/02/18 01:35:17;;;;;;;1999.90;999.90;;;;;;;1.30;48.46;100439.44;5030873;27;98691;-71
2022/02/18 01:37:45;;;;;;;1999.90;999.90;;;;;;;1.27;49.37;100415.69;5011258;28;98499;-71
2022/02/18 01:40:14;;;;;;;1999.90;999.90;;;;;;;1.32;49.20;100408.97;5010953;28;100612;-71
2022/02/18 01:42:43;;;;;;;1999.90;999.90;;;;;;;1.31;49.47;100407.16;5009178;28;97351;-74
2022/02/18 01:45:11;;;;;;;1999.90;999.90;;;;;;;1.33;48.88;100408.13;4998619;28;97756;-72
2022/02/18 01:47:39;;;;;;;1999.90;999.90;;;;;;;1.35;49.10;100411.75;5010693;28;99492;-71
2022/02/18 01:50:08;;;;;;;1999.90;999.90;;;;;;;1.37;48.94;100419.69;5012326;27;99249;-72
2022/02/18 01:52:37;;;;;;;1999.90;999.90;;;;;;;1.36;49.37;100413.53;5015994;27;98167;-71
2022/02/18 01:55:10;;;;;;;1999.90;999.90;;;;;;;1.35;48.83;100414.38;5014882;27;97923;-72
2022/02/18 01:57:46;;;;;;;1999.90;999.90;;;;;;;1.32;49.11;100422.09;5009993;28;100454;-71
2022/02/18 02:00:15;;;;;;;1999.90;999.90;;;;;;;1.32;49.25;100423.78;5012470;28;98996;-71
2022/02/18 02:02:43;;;;;;;1999.90;999.90;;;;;;;1.34;49.19;100415.19;5014243;27;97637;-72
2022/02/18 02:05:13;;;;;;;1999.90;999.90;;;;;;;1.32;49.46;100418.56;4996856;28;98732;-71
2022/02/18 02:07:42;;;;;;;1999.90;999.90;;;;;;;1.37;49.31;100411.81;5015735;27;99175;-71
2022/02/18 02:10:12;;;;;;;1999.90;999.90;;;;;;;1.34;49.59;100407.34;5013638;27;99116;-71
2022/02/18 02:12:42;;;;;;;1999.90;999.90;;;;;;;1.29;49.36;100421.91;4997074;28;97527;-71
2022/02/18 02:15:20;;;;;;;1999.90;999.90;;;;;;;1.27;49.76;100412.19;4999096;28;98024;-71
2022/02/18 02:17:48;;;;;;;1999.90;999.90;;;;;;;1.26;49.99;100411.28;4997239;28;100022;-71
2022/02/18 02:20:17;;;;;;;1999.90;999.90;;;;;;;1.26;50.17;100408.66;5010164;27;98804;-70
2022/02/18 02:22:47;;;;;;;1999.90;999.90;;;;;;;1.24;50.20;100405.03;4999469;28;97825;-71
2022/02/18 02:25:15;;;;;;;1999.90;999.90;;;;;;;1.23;49.93;100408.50;5018429;28;98464;-71
2022/02/18 02:27:43;;;;;;;1999.90;999.90;;;;;;;1.21;50.08;100410.13;5013111;27;97682;-70
2022/02/18 02:30:13;;;;;;;1999.90;999.90;;;;;;;1.19;50.37;100403.91;4996265;28;100716;-72
2022/02/18 02:32:41;;;;;;;1999.90;999.90;;;;;;;1.18;50.21;100399.47;4994770;28;100675;-71
2022/02/18 02:35:09;;;;;;;1999.90;999.90;;;;;;;1.17;50.25;100395.97;5014568;28;97604;-70
2022/02/18 02:37:40;;;;;;;1999.90;999.90;;;;;;;1.17;50.27;100392.44;5014854;28;101855;-71
2022/02/18 02:40:21;;;;;;;1999.90;999.90;;;;;;;1.11;50.77;100405.22;5013737;27;99153;-71
2022/02/18 02:42:49;;;;;;;1999.90;999.90;;;;;;;1.11;50.17;100379.03;4996226;28;98658;-71
2022/02/18 02:45:18;;;;;;;1999.90;999.90;;;;;;;1.07;50.75;100396.31;5012843;27;98367;-71
2022/02/18 02:47:48;;;;;;;1999.90;999.90;;;;;;;1.04;50.40;100403.09;5012929;28;100825;-71
2022/02/18 02:50:30;;;;;;;1999.90;999.90;;;;;;;1.01;50.93;100401.19;5015628;28;98650;-71
2022/02/18 02:53:02;;;;;;;1999.90;999.90;;;;;;;0.99;51.15;100401.97;5012379;27;97818;-72
2022/02/18 02:55:31;;;;;;;1999.90;999.90;;;;;;;0.98;51.09;100398.44;5009538;28;98012;-71
2022/02/18 02:58:01;;;;;;;1999.90;999.90;;;;;;;0.94;51.41;100404.31;5011397;28;103051;-71
2022/02/18 03:00:29;;;;;;;1999.90;999.90;;;;;;;0.95;51.77;100400.00;5016994;27;97323;-70
2022/02/18 03:02:58;;;;;;;1999.90;999.90;;;;;;;0.94;51.22;100392.97;5012511;28;98678;-68
2022/02/18 03:05:49;;;;;;;1999.90;999.90;;;;;;;0.88;52.06;100408.34;5014632;28;98719;-70
2022/02/18 03:08:19;;;;;;;1999.90;999.90;;;;;;;0.87;51.87;100396.06;4992858;28;100781;-71
2022/02/18 03:13:49;;;;;;;1999.90;999.90;;;;;;;0.81;52.23;100390.50;5022303;27;98506;-71
2022/02/18 03:16:19;;;;;;;1999.90;999.90;;;;;;;0.83;52.16;100388.88;5013120;28;97108;-71
2022/02/18 03:18:47;;;;;;;1999.90;999.90;;;;;;;0.85;52.05;100382.00;4994060;28;99707;-71
2022/02/18 03:21:16;;;;;;;1999.90;999.90;;;;;;;0.84;52.49;100381.09;5013402;28;99560;-70
2022/02/18 03:23:46;;;;;;;1999.90;999.90;;;;;;;0.84;51.99;100385.44;5013987;27;97366;-71
2022/02/18 03:26:16;;;;;;;1999.90;999.90;;;;;;;0.83;51.79;100378.41;4996053;28;100231;-71
2022/02/18 03:28:48;;;;;;;1999.90;999.90;;;;;;;0.84;52.14;100382.81;5010740;28;100147;-71
2022/02/18 03:31:47;;;;;;;1999.90;999.90;;;;;;;0.83;52.34;100383.63;5016231;27;101377;-71
2022/02/18 03:34:15;;;;;;;1999.90;999.90;;;;;;;0.80;52.27;100388.69;4996177;28;96847;-72
2022/02/18 03:36:43;;;;;;;1999.90;999.90;;;;;;;0.77;52.88;100392.06;5013309;27;97414;-69
2022/02/18 03:39:11;;;;;;;1999.90;999.90;;;;;;;0.79;52.32;100400.00;5028713;27;98084;-71
2022/02/18 03:41:42;;;;;;;1999.90;999.90;;;;;;;0.80;51.88;100393.94;5011196;28;97663;-70
2022/02/18 03:44:11;;;;;;;1999.90;999.90;;;;;;;0.82;51.84;100401.06;5015382;27;98375;-71
2022/02/18 03:46:50;;;;;;;1999.90;999.90;;;;;;;0.81;52.71;100407.09;5017083;28;97435;-71
2022/02/18 03:49:17;;;;;;;1999.90;999.90;;;;;;;0.77;52.32;100426.09;5015897;28;99569;-71
2022/02/18 03:51:46;;;;;;;1999.90;999.90;;;;;;;0.74;52.32;100419.81;4999310;28;99303;-71
2022/02/18 03:54:14;;;;;;;1999.90;999.90;;;;;;;0.70;52.95;100415.22;5002215;28;98570;-70
2022/02/18 03:56:43;;;;;;;1999.90;999.90;;;;;;;0.71;52.55;100411.75;5016693;27;97356;-71
2022/02/18 03:59:11;;;;;;;1999.90;999.90;;;;;;;0.71;52.77;100417.00;5015267;27;98888;-70
2022/02/18 04:01:42;;;;;;;1999.90;999.90;;;;;;;0.75;52.56;100424.22;5013201;28;100576;-71
2022/02/18 04:04:09;;;;;;;1999.90;999.90;;;;;;;0.74;52.56;100425.91;4998932;28;97837;-71
2022/02/18 04:06:42;;;;;;;1999.90;999.90;;;;;;;0.78;52.12;100433.13;5017530;28;97696;-71
2022/02/18 04:09:20;;;;;;;1999.90;999.90;;;;;;;0.78;52.35;100424.38;5035786;27;97638;-72
2022/02/18 04:11:59;;;;;;;1999.90;999.90;;;;;;;0.76;52.08;100439.09;5034080;27;97875;-72
2022/02/18 04:14:29;;;;;;;1999.90;999.90;;;;;;;0.72;52.34;100437.16;5034002;27;96863;-71
2022/02/18 04:17:02;;;;;;;1999.90;999.90;;;;;;;0.75;52.24;100445.16;5015606;28;96867;-71
2022/02/18 04:19:33;;;;;;;1999.90;999.90;;;;;;;0.73;52.53;100436.31;4998042;28;98157;-71
2022/02/18 04:22:25;;;;;;;1999.90;999.90;;;;;;;0.73;52.22;100429.38;4999457;28;100477;-71
2022/02/18 04:24:53;;;;;;;1999.90;999.90;;;;;;;0.77;51.93;100433.06;5001272;28;97951;-72
2022/02/18 04:27:22;;;;;;;1999.90;999.90;;;;;;;0.78;52.30;100445.31;5017450;28;97158;-71
2022/02/18 04:29:50;;;;;;;1999.90;999.90;;;;;;;0.79;52.30;100431.41;5016598;27;98043;-70
2022/02/18 04:32:18;;;;;;;1999.90;999.90;;;;;;;0.80;52.42;100427.97;5014829;28;99109;-71
2022/02/18 04:34:45;;;;;;;1999.90;999.90;;;;;;;0.83;52.68;100434.28;5018139;28;97239;-70
2022/02/18 04:37:13;;;;;;;1999.90;999.90;;;;;;;0.82;52.30;100426.34;5017459;27;98562;-71
2022/02/18 04:39:41;;;;;;;1999.90;999.90;;;;;;;0.84;52.55;100419.47;5014977;28;100433;-71
2022/02/18 04:42:09;;;;;;;1999.90;999.90;;;;;;;0.86;52.26;100417.84;5018448;27;100889;-70
2022/02/18 04:44:38;;;;;;;1999.90;999.90;;;;;;;0.86;52.15;100421.38;5017520;27;97308;-71
2022/02/18 04:47:06;;;;;;;1999.90;999.90;;;;;;;0.87;52.53;100420.53;5015414;28;98382;-71
2022/02/18 04:49:34;;;;;;;1999.90;999.90;;;;;;;0.87;52.31;100422.25;5015417;27;97316;-70
2022/02/18 04:52:13;;;;;;;1999.90;999.90;;;;;;;0.87;52.41;100414.38;5019817;27;101371;-70
2022/02/18 04:54:40;;;;;;;1999.90;999.90;;;;;;;0.83;52.71;100415.06;5016125;28;97798;-72
2022/02/18 04:57:08;;;;;;;1999.90;999.90;;;;;;;0.80;52.52;100430.59;5016271;28;98277;-70
2022/02/18 04:59:38;;;;;;;1999.90;999.90;;;;;;;0.77;52.72;100422.59;5016931;28;98385;-70
2022/02/18 05:02:05;;;;;;;1999.90;999.90;;;;;;;0.77;52.29;100427.81;5010594;27;98186;-70
2022/02/18 05:04:33;;;;;;;1999.90;999.90;;;;;;;0.75;52.89;100432.97;5004502;28;99787;-71
2022/02/18 05:07:01;;;;;;;1999.90;999.90;;;;;;;0.73;52.69;100439.84;5016793;28;97965;-70
2022/02/18 05:09:29;;;;;;;1999.90;999.90;;;;;;;0.74;52.85;100430.28;5014136;28;97760;-71
2022/02/18 05:11:56;;;;;;;1999.90;999.90;;;;;;;0.71;53.18;100432.72;5015520;27;100605;-70
2022/02/18 05:14:24;;;;;;;1999.90;999.90;;;;;;;0.70;53.26;100436.16;5016356;28;97260;-71
2022/02/18 05:16:53;;;;;;;1999.90;999.90;;;;;;;0.73;52.78;100418.00;5015859;28;97687;-71
2022/02/18 05:19:21;;;;;;;1999.90;999.90;;;;;;;0.74;53.10;100414.56;5012318;27;99002;-71
2022/02/18 05:21:49;;;;;;;1999.90;999.90;;;;;;;0.73;52.75;100402.28;5015604;27;97912;-71
2022/02/18 05:24:16;;;;;;;1999.90;999.90;;;;;;;0.71;52.78;100404.81;5015841;28;96903;-70
2022/02/18 05:26:44;;;;;;;1999.90;999.90;;;;;;;0.70;53.20;100397.78;5010133;27;99051;-71
2022/02/18 05:29:12;;;;;;;1999.90;999.90;;;;;;;0.67;53.28;100388.84;5010030;28;97750;-71
2022/02/18 05:31:41;;;;;;;1999.90;999.90;;;;;;;0.71;52.85;100390.81;5008974;27;98068;-70
2022/02/18 05:34:12;;;;;;;1999.90;999.90;;;;;;;0.71;52.53;100388.19;5014577;27;97226;-71
2022/02/18 05:36:40;;;;;;;1999.90;999.90;;;;;;;0.70;52.95;100391.66;5031075;27;97266;-71
2022/02/18 05:39:08;;;;;;;1999.90;999.90;;;;;;;0.70;52.50;100391.66;5016811;28;97207;-70
2022/02/18 05:41:36;;;;;;;1999.90;999.90;;;;;;;0.68;52.97;100388.03;5011189;27;99552;-71
2022/02/18 05:44:04;;;;;;;1999.90;999.90;;;;;;;0.69;52.79;100384.59;5007383;27;97638;-71
2022/02/18 05:46:32;;;;;;;1999.90;999.90;;;;;;;0.67;53.07;100388.84;5008034;28;98311;-70
2022/02/18 05:48:59;;;;;;;1999.90;999.90;;;;;;;0.69;53.03;100390.75;5026543;27;99708;-70
2022/02/18 05:51:29;;;;;;;1999.90;999.90;;;;;;;0.68;52.93;100385.44;5009888;27;98677;-70
2022/02/18 05:53:56;;;;;;;1999.90;999.90;;;;;;;0.68;53.26;100377.56;5006438;28;98701;-70
2022/02/18 05:56:24;;;;;;;1999.90;999.90;;;;;;;0.72;52.99;100374.31;5016380;27;96958;-70
2022/02/18 05:58:52;;;;;;;1999.90;999.90;;;;;;;0.71;53.25;100362.94;5017964;28;97995;-71
2022/02/18 06:01:20;;;;;;;1999.90;999.90;;;;;;;0.71;52.89;100362.94;5013682;27;97251;-70
2022/02/18 06:03:48;;;;;;;1999.90;999.90;;;;;;;0.72;53.21;100361.22;5027688;27;97050;-70
2022/02/18 06:06:17;;;;;;;1999.90;999.90;;;;;;;0.70;53.13;100355.00;5015339;28;98564;-71
2022/02/18 06:08:47;;;;;;;1999.90;999.90;;;;;;;0.67;52.85;100360.03;5014459;28;98529;-70
2022/02/18 06:11:15;;;;;;;1999.90;999.90;;;;;;;0.70;52.61;100355.00;5014197;28;98389;-71
2022/02/18 06:13:43;;;;;;;1999.90;999.90;;;;;;;0.70;53.08;100361.16;5012235;28;97446;-71
2022/02/18 06:16:10;;;;;;;1999.90;999.90;;;;;;;0.71;53.27;100364.63;5029503;27;98053;-71
2022/02/18 06:18:38;;;;;;;1999.90;999.90;;;;;;;0.74;52.95;100367.44;5013775;28;97528;-71
2022/02/18 06:21:06;;;;;;;1999.90;999.90;;;;;;;0.73;52.83;100363.00;5017015;27;97521;-71
2022/02/18 06:23:34;;;;;;;1999.90;999.90;;;;;;;0.77;52.91;100359.72;5034077;27;97456;-71
2022/02/18 06:26:03;;;;;;;1999.90;999.90;;;;;;;0.82;53.06;100359.16;5017035;28;96952;-71
2022/02/18 06:28:31;;;;;;;1999.90;999.90;;;;;;;0.83;53.24;100367.94;5018486;28;98861;-70
2022/02/18 06:30:59;;;;;;;1999.90;999.90;;;;;;;0.83;52.71;100352.22;5015462;27;97555;-71
2022/02/18 06:33:27;;;;;;;1999.90;999.90;;;;;;;0.85;52.89;100361.06;5004362;28;99170;-70
2022/02/18 06:35:55;;;;;;;1999.90;999.90;;;;;;;0.87;52.99;100360.28;5019533;28;96921;-70
2022/02/18 06:38:24;;;;;;;1999.90;999.90;;;;;;;0.88;52.79;100355.97;5018178;28;99297;-70
2022/02/18 06:40:52;;;;;;;1999.90;999.90;;;;;;;0.91;53.28;100361.34;5014978;28;102118;-69
2022/02/18 06:43:21;;;;;;;1999.90;999.90;;;;;;;0.93;53.23;100352.78;5018227;28;97036;-71
2022/02/18 06:45:49;;;;;;;1999.90;999.90;;;;;;;0.95;53.42;100343.28;5009410;28;97654;-72
2022/02/18 06:48:17;;;;;;;1999.90;999.90;;;;;;;0.95;52.95;100345.00;5012159;28;97233;-73
2022/02/18 06:50:45;;;;;;;1999.90;999.90;;;;;;;0.95;53.15;100338.03;5013071;27;102640;-72
2022/02/18 06:53:15;;;;;;;1999.90;999.90;;;;;;;0.95;54.01;100340.66;5016324;28;97498;-73
2022/02/18 06:55:43;;;;;;;1999.90;999.90;;;;;;;1.00;53.19;100333.03;5011955;27;98280;-74
2022/02/18 06:58:10;;;;;;;1999.90;999.90;;;;;;;1.05;52.79;100319.34;5008522;27;98910;-70
2022/02/18 07:00:40;;;;;;;1999.90;999.90;;;;;;;1.12;53.21;100310.09;5012782;28;97607;-73
2022/02/18 07:03:12;;;;;;;1999.90;999.90;;;;;;;1.13;53.16;100307.53;5011878;27;98322;-73
2022/02/18 07:05:40;;;;;;;1999.90;999.90;;;;;;;1.20;52.75;100303.50;5013117;28;96974;-72
2022/02/18 07:08:08;;;;;;;1999.90;999.90;;;;;;;1.23;53.26;100309.78;5014324;27;98486;-72
2022/02/18 07:10:36;;;;;;;1999.90;999.90;;;;;;;1.25;52.39;100294.19;5016241;28;98275;-71
2022/02/18 07:13:04;;;;;;;1999.90;999.90;;;;;;;1.29;52.97;100301.34;5014776;27;97304;-72
2022/02/18 07:15:31;;;;;;;1999.90;999.90;;;;;;;1.26;52.90;100289.81;5016939;27;98713;-71
2022/02/18 07:18:02;;;;;;;1999.90;999.90;;;;;;;1.23;53.19;100283.59;5029553;27;100653;-70
2022/02/18 07:20:30;;;;;;;1999.90;999.90;;;;;;;1.21;53.40;100277.38;5018483;28;97729;-71
2022/02/18 07:22:59;;;;;;;1999.90;999.90;;;;;;;1.22;53.22;100267.78;5016107;27;97639;-71
2022/02/18 07:25:27;;;;;;;1999.90;999.90;;;;;;;1.21;53.64;100276.50;5017473;28;98055;-71
2022/02/18 07:27:55;;;;;;;1999.90;999.90;;;;;;;1.27;52.90;100273.28;5018032;27;98358;-71
2022/02/18 07:30:23;;;;;;;1999.90;999.90;;;;;;;1.31;53.07;100270.88;5017860;28;99121;-71
2022/02/18 07:32:52;;;;;;;1999.90;999.90;;;;;;;1.32;53.46;100271.78;5017161;27;97050;-71
2022/02/18 07:35:21;;;;;;;1999.90;999.90;;;;;;;1.39;52.68;100273.88;5018686;28;97364;-71
2022/02/18 07:37:49;;;;;;;1999.90;999.90;;;;;;;1.41;52.91;100277.47;5016662;28;101054;-71
2022/02/18 07:40:18;;;;;;;1999.90;999.90;;;;;;;1.48;52.65;100277.84;5013683;28;97796;-71
2022/02/18 07:42:46;;;;;;;1999.90;999.90;;;;;;;1.53;52.48;100272.81;5017186;27;96898;-72
2022/02/18 07:45:14;;;;;;;1999.90;999.90;;;;;;;1.55;53.11;100265.94;5019113;28;98626;-71
2022/02/18 07:47:42;;;;;;;1999.90;999.90;;;;;;;1.60;52.96;100270.59;5014557;28;99852;-72
2022/02/18 07:50:11;;;;;;;1999.90;999.90;;;;;;;1.57;52.61;100262.56;5016212;28;97752;-71
2022/02/18 07:52:40;;;;;;;1999.90;999.90;;;;;;;1.57;52.79;100264.28;5034526;27;96905;-72
2022/02/18 07:55:08;;;;;;;1999.90;999.90;;;;;;;1.59;53.07;100263.56;5018669;28;96989;-72
2022/02/18 07:57:37;;;;;;;1999.90;999.90;;;;;;;1.55;52.82;100261.59;5034133;27;100219;-68
2022/02/18 08:00:06;;;;;;;1999.90;999.90;;;;;;;1.55;53.14;100256.34;5020019;28;98852;-73
2022/02/18 08:02:39;;;;;;;1999.90;999.90;;;;;;;1.56;52.88;100238.91;5014760;27;98516;-72
2022/02/18 08:05:07;;;;;;;1999.90;999.90;;;;;;;1.58;53.22;100230.28;5007924;28;97810;-72
2022/02/18 08:07:35;;;;;;;1999.90;999.90;;;;;;;1.60;53.63;100223.38;5012979;27;99304;-72
2022/02/18 08:10:06;;;;;;;1999.90;999.90;;;;;;;1.62;53.24;100212.97;5013910;28;99251;-71
2022/02/18 08:12:34;;;;;;;1999.90;999.90;;;;;;;1.61;52.86;100208.56;5016268;27;97099;-71
2022/02/18 08:15:02;;;;;;;1999.90;999.90;;;;;;;1.65;53.14;100210.50;5014833;28;97259;-71
2022/02/18 08:17:34;;;;;;;1999.90;999.90;;;;;;;1.66;53.15;100202.72;5013149;28;99281;-71
2022/02/18 08:20:02;;;;;;;1999.90;999.90;;;;;;;1.70;52.71;100199.41;5010822;27;100012;-72
2022/02/18 08:22:30;;;;;;;1999.90;999.90;;;;;;;1.69;53.08;100201.97;5009898;27;98031;-72
2022/02/18 08:24:58;;;;;;;1999.90;999.90;;;;;;;1.73;53.33;100193.38;5015193;27;99050;-70
2022/02/18 08:27:27;;;;;;;1999.90;999.90;;;;;;;1.77;53.00;100198.88;5016227;27;98800;-70
2022/02/18 08:29:55;;;;;;;1999.90;999.90;;;;;;;1.78;52.77;100197.16;5016178;28;98582;-72
2022/02/18 08:32:23;;;;;;;1999.90;999.90;;;;;;;1.77;53.51;100188.38;5012089;28;97950;-72
2022/02/18 08:34:51;;;;;;;1999.90;999.90;;;;;;;1.78;53.44;100179.66;5014686;28;96939;-71
2022/02/18 08:37:18;;;;;;;1999.90;999.90;;;;;;;1.80;52.98;100164.91;5008740;27;100450;-72
2022/02/18 08:39:46;;;;;;;1999.90;999.90;;;;;;;1.87;52.36;100163.47;5008940;28;97872;-71
2022/02/18 08:42:18;;;;;;;1999.90;999.90;;;;;;;1.92;52.74;100147.13;5024857;27;98747;-72
2022/02/18 08:44:48;;;;;;;1999.90;999.90;;;;;;;1.92;52.64;100141.88;5008134;28;99001;-72
2022/02/18 08:47:17;;;;;;;1999.90;999.90;;;;;;;1.95;53.16;100136.75;5012464;27;98039;-71
2022/02/18 08:49:45;;;;;;;1999.90;999.90;;;;;;;2.00;53.36;100127.34;5013701;28;97568;-71
2022/02/18 08:52:12;;;;;;;1999.90;999.90;;;;;;;2.02;53.18;100128.31;5015696;27;97696;-72
2022/02/18 08:54:40;;;;;;;1999.90;999.90;;;;;;;2.07;53.27;100126.78;5017548;28;100009;-72
2022/02/18 08:57:08;;;;;;;1999.90;999.90;;;;;;;2.13;53.14;100144.56;5015055;28;100061;-71
2022/02/18 08:59:38;;;;;;;1999.90;999.90;;;;;;;2.13;53.16;100140.22;5013694;27;100282;-72
2022/02/18 09:02:08;;;;;;;1999.90;999.90;;;;;;;2.14;52.76;100125.38;5009993;27;99478;-71
2022/02/18 09:04:36;;;;;;;1999.90;999.90;;;;;;;2.19;52.93;100127.38;5021121;27;97525;-72
2022/02/18 09:07:08;;;;;;;1999.90;999.90;;;;;;;2.17;53.27;100110.66;5034871;27;98692;-72
2022/02/18 09:09:36;;;;;;;1999.90;999.90;;;;;;;2.24;53.01;100098.69;5018923;28;99615;-71
2022/02/18 09:12:04;;;;;;;1999.90;999.90;;;;;;;2.27;53.06;100076.94;5017320;28;97844;-71
2022/02/18 09:14:32;;;;;;;1999.90;999.90;;;;;;;2.31;52.10;100060.50;5018335;27;96905;-70
2022/02/18 09:17:16;;;;;;;1999.90;999.90;;;;;;;2.38;52.40;100046.81;5001609;28;98820;-71
2022/02/18 09:19:44;;;;;;;1999.90;999.90;;;;;;;2.48;52.62;100022.72;5016157;27;98856;-71
2022/02/18 09:22:12;;;;;;;1999.90;999.90;;;;;;;2.52;52.38;100008.88;5019729;27;98905;-71
2022/02/18 09:24:40;;;;;;;1999.90;999.90;;;;;;;2.56;52.76;99979.28;5017986;28;97467;-71
2022/02/18 09:27:08;;;;;;;1999.90;999.90;;;;;;;2.61;52.28;99970.75;5012377;28;98096;-71
2022/02/18 09:29:35;;;;;;;1999.90;999.90;;;;;;;2.66;52.74;99948.19;5013406;28;99900;-71
2022/02/18 09:32:04;;;;;;;1999.90;999.90;;;;;;;2.72;52.33;99929.16;5015231;28;96853;-71
2022/02/18 09:34:33;;;;;;;1999.90;999.90;;;;;;;2.75;52.37;99937.13;5017628;28;97819;-70
2022/02/18 09:37:01;;;;;;;1999.90;999.90;;;;;;;2.77;52.38;99953.84;5018552;28;99267;-70
2022/02/18 09:39:29;;;;;;;1999.90;999.90;;;;;;;2.78;52.37;99974.97;5019164;28;97352;-71
2022/02/18 09:41:57;;;;;;;1999.90;999.90;;;;;;;2.80;52.12;100001.28;5015613;27;97255;-71
2022/02/18 09:44:27;;;;;;;1999.90;999.90;;;;;;;2.77;52.97;100003.75;5017903;28;97753;-71
2022/02/18 09:46:55;;;;;;;1999.90;999.90;;;;;;;2.77;52.53;99995.88;5017543;28;99664;-70
2022/02/18 09:49:24;;;;;;;1999.90;999.90;;;;;;;2.82;52.73;99997.84;5016423;28;97822;-71
2022/02/18 09:51:53;;;;;;;1999.90;999.90;;;;;;;2.83;52.66;100002.31;5014455;27;97762;-71
2022/02/18 09:54:21;;;;;;;1999.90;999.90;;;;;;;2.83;52.42;100006.66;5015968;27;96920;-68
2022/02/18 09:56:49;;;;;;;1999.90;999.90;;;;;;;2.83;52.42;99996.13;5015478;28;99493;-69
2022/02/18 09:59:17;;;;;;;1999.90;999.90;;;;;;;2.86;52.21;99985.75;5014361;27;99682;-69
2022/02/18 10:01:45;;;;;;;1999.90;999.90;;;;;;;2.87;52.50;99977.03;5014846;27;97477;-69
2022/02/18 10:04:13;;;;;;;1999.90;999.90;;;;;;;2.92;52.44;99970.22;5014492;28;97919;-72
2022/02/18 10:06:41;;;;;;;1999.90;999.90;;;;;;;2.97;52.18;99955.53;5018497;27;98237;-71
2022/02/18 10:09:11;;;;;;;1999.90;999.90;;;;;;;2.99;51.92;99939.00;5015034;27;99104;-71
2022/02/18 10:11:56;;;;;;;1999.90;999.90;;;;;;;3.04;52.31;99940.03;5018399;28;97826;-71
2022/02/18 10:14:23;;;;;;;1999.90;999.90;;;;;;;3.08;51.93;99934.06;5015404;28;97309;-70
2022/02/18 10:16:51;;;;;;;1999.90;999.90;;;;;;;3.13;52.09;99924.63;5034747;27;98707;-70
2022/02/18 10:19:21;;;;;;;1999.90;999.90;;;;;;;3.18;51.57;99912.53;5017251;27;99716;-70
2022/02/18 10:22:01;;;;;;;1999.90;999.90;;;;;;;3.19;51.79;99902.94;5018072;27;96890;-70
2022/02/18 10:24:40;;;;;;;1999.90;999.90;;;;;;;3.15;52.16;99899.28;5013034;27;97777;-69
2022/02/18 10:27:07;;;;;;;1999.90;999.90;;;;;;;3.16;51.84;99900.19;5012784;28;101388;-70
2022/02/18 10:29:56;;;;;;;1999.90;999.90;;;;;;;3.15;52.64;99886.16;5015643;27;98814;-70
2022/02/18 10:32:23;;;;;;;1999.90;999.90;;;;;;;3.17;51.87;99876.59;5013406;27;97738;-70
2022/02/18 10:34:52;;;;;;;1999.90;999.90;;;;;;;3.17;52.26;99871.34;5017476;28;97744;-70
2022/02/18 10:37:21;;;;;;;1999.90;999.90;;;;;;;3.17;52.43;99857.28;5015365;27;98746;-69
2022/02/18 10:39:50;;;;;;;1999.90;999.90;;;;;;;3.17;51.75;99849.41;5011862;27;101280;-70
2022/02/18 10:42:18;;;;;;;1999.90;999.90;;;;;;;3.16;52.08;99840.66;5009453;28;97209;-70
2022/02/18 10:45:07;;;;;;;1999.90;999.90;;;;;;;3.13;52.84;99827.38;5012354;27;98229;-70
2022/02/18 10:47:36;;;;;;;1999.90;999.90;;;;;;;3.16;52.37;99818.72;5013375;27;99467;-70
2022/02/18 10:50:14;;;;;;;1999.90;999.90;;;;;;;3.13;53.16;99805.47;5015736;28;99301;-70
2022/02/18 10:52:43;;;;;;;1999.90;999.90;;;;;;;3.12;53.14;99801.03;5012368;27;98753;-70
2022/02/18 10:55:12;;;;;;;1999.90;999.90;;;;;;;3.10;53.02;99784.31;5016376;28;98664;-69
2022/02/18 10:57:40;;;;;;;1999.90;999.90;;;;;;;3.08;52.56;99772.88;5031240;27;98782;-69
2022/02/18 11:00:12;;;;;;;1999.90;999.90;;;;;;;3.09;52.96;99772.03;5028937;27;101194;-70
2022/02/18 11:02:41;;;;;;;1999.90;999.90;;;;;;;3.09;52.79;99753.66;5013124;27;99297;-70
2022/02/18 11:05:26;;;;;;;1999.90;999.90;;;;;;;3.04;53.44;99748.22;4996825;27;96877;-70
2022/02/18 11:07:56;;;;;;;1999.90;999.90;;;;;;;3.03;53.08;99742.91;5013232;28;100317;-69